sensor_id;sensor_type;location;lat;lon;timestamp;pressure;altitude;pressure_sealevel;temperature;humidity
73103;BME280;61294;65.988;29.172;2022-12-07T00:00:03;97162.22;;;-4.13;100.00
73103;BME280;61294;65.988;29.172;2022-12-07T00:02:30;97182.09;;;-4.08;100.00
73103;BME280;61294;65.988;29.172;2022-12-07T00:04:56;97193.44;;;-4.01;100.00
73103;BME280;61294;65.988;29.172;2022-12-07T00:07:22;97198.53;;;-4.03;100.00
73103;BME280;61294;65.988;29.172;2022-12-07T00:09:47;97181.22;;;-4.08;100.00
73103;BME280;61294;65.988;29.172;2022-12-07T00:12:13;97195.97;;;-4.03;100.00
73103;BME280;61294;65.988;29.172;2022-12-07T00:14:39;97198.56;;;-4.01;100.00
73103;BME280;61294;65.988;29.172;2022-12-07T00:17:05;97166.38;;;-4.19;100.00
73103;BME280;61294;65.988;29.172;2022-12-07T00:19:30;97200.28;;;-4.02;100.00
73103;BME280;61294;65.988;29.172;2022-12-07T00:21:56;97208.88;;;-4.01;100.00
73103;BME280;61294;65.988;29.172;2022-12-07T00:24:22;97198.38;;;-4.09;100.00
73103;BME280;61294;65.988;29.172;2022-12-07T00:26:47;97206.16;;;-4.06;100.00
73103;BME280;61294;65.988;29.172;2022-12-07T00:29:21;97195.88;;;-4.06;100.00
73103;BME280;61294;65.988;29.172;2022-12-07T00:31:47;97208.00;;;-4.02;100.00
73103;BME280;61294;65.988;29.172;2022-12-07T00:34:18;97215.75;;;-4.00;100.00
73103;BME280;61294;65.988;29.172;2022-12-07T00:36:45;97200.97;;;-4.07;100.00
73103;BME280;61294;65.988;29.172;2022-12-07T00:39:10;97201.03;;;-4.06;100.00
73103;BME280;61294;65.988;29.172;2022-12-07T00:41:36;97207.19;;;-3.99;100.00
73103;BME280;61294;65.988;29.172;2022-12-07T00:44:02;97201.09;;;-4.03;100.00
73103;BME280;61294;65.988;29.172;2022-12-07T00:46:28;97211.53;;;-3.98;100.00
73103;BME280;61294;65.988;29.172;2022-12-07T00:48:53;97167.09;;;-4.23;100.00
73103;BME280;61294;65.988;29.172;2022-12-07T00:51:21;97201.09;;;-4.03;100.00
73103;BME280;61294;65.988;29.172;2022-12-07T00:53:47;97193.34;;;-4.04;100.00
73103;BME280;61294;65.988;29.172;2022-12-07T00:56:16;97219.16;;;-4.01;100.00
73103;BME280;61294;65.988;29.172;2022-12-07T00:58:42;97213.16;;;-4.02;100.00
73103;BME280;61294;65.988;29.172;2022-12-07T01:01:09;97200.34;;;-4.00;100.00
73103;BME280;61294;65.988;29.172;2022-12-07T01:03:36;97219.19;;;-4.00;100.00
73103;BME280;61294;65.988;29.172;2022-12-07T01:06:03;97214.88;;;-4.01;100.00
73103;BME280;61294;65.988;29.172;2022-12-07T01:08:29;97220.91;;;-4.00;100.00
73103;BME280;61294;65.988;29.172;2022-12-07T01:10:59;97207.16;;;-4.01;100.00
73103;BME280;61294;65.988;29.172;2022-12-07T01:13:25;97212.25;;;-4.02;100.00
73103;BME280;61294;65.988;29.172;2022-12-07T01:15:51;97208.06;;;-4.00;100.00
73103;BME280;61294;65.988;29.172;2022-12-07T01:18:17;97217.41;;;-4.02;100.00
73103;BME280;61294;65.988;29.172;2022-12-07T01:20:43;97192.97;;;-4.17;100.00
73103;BME280;61294;65.988;29.172;2022-12-07T01:23:08;97216.47;;;-4.06;100.00
73103;BME280;61294;65.988;29.172;2022-12-07T01:25:34;97194.66;;;-4.19;100.00
73103;BME280;61294;65.988;29.172;2022-12-07T01:28:00;97222.47;;;-4.05;100.00
73103;BME280;61294;65.988;29.172;2022-12-07T01:30:25;97225.91;;;-4.05;100.00
73103;BME280;61294;65.988;29.172;2022-12-07T01:32:51;97216.47;;;-4.06;100.00
73103;BME280;61294;65.988;29.172;2022-12-07T01:35:17;97222.47;;;-4.05;100.00
73103;BME280;61294;65.988;29.172;2022-12-07T01:37:42;97220.72;;;-4.06;100.00
73103;BME280;61294;65.988;29.172;2022-12-07T01:40:09;97225.84;;;-4.06;100.00
73103;BME280;61294;65.988;29.172;2022-12-07T01:42:36;97190.16;;;-4.26;100.00
73103;BME280;61294;65.988;29.172;2022-12-07T01:45:34;97213.84;;;-4.07;100.00
73103;BME280;61294;65.988;29.172;2022-12-07T01:48:02;97199.06;;;-4.14;100.00
73103;BME280;61294;65.988;29.172;2022-12-07T01:50:28;97219.03;;;-4.06;100.00
73103;BME280;61294;65.988;29.172;2022-12-07T01:52:59;97213.88;;;-4.06;100.00
73103;BME280;61294;65.988;29.172;2022-12-07T01:55:27;97223.28;;;-4.06;100.00
73103;BME280;61294;65.988;29.172;2022-12-07T01:57:54;97219.81;;;-4.08;100.00
73103;BME280;61294;65.988;29.172;2022-12-07T02:00:21;97220.63;;;-4.09;100.00
73103;BME280;61294;65.988;29.172;2022-12-07T02:03:29;97218.06;;;-4.09;100.00
73103;BME280;61294;65.988;29.172;2022-12-07T02:05:57;97218.94;;;-4.09;100.00
73103;BME280;61294;65.988;29.172;2022-12-07T02:08:25;97217.22;;;-4.08;100.00
73103;BME280;61294;65.988;29.172;2022-12-07T02:10:50;97231.81;;;-4.09;100.00
73103;BME280;61294;65.988;29.172;2022-12-07T02:13:22;97209.38;;;-4.13;100.00
73103;BME280;61294;65.988;29.172;2022-12-07T02:22:32;97209.38;;;-4.13;100.00
73103;BME280;61294;65.988;29.172;2022-12-07T02:28:07;97220.41;;;-4.17;100.00
73103;BME280;61294;65.988;29.172;2022-12-07T02:30:42;97217.97;;;-4.12;100.00
73103;BME280;61294;65.988;29.172;2022-12-07T02:33:19;97188.31;;;-4.30;100.00
73103;BME280;61294;65.988;29.172;2022-12-07T02:36:25;97192.63;;;-4.29;100.00
73103;BME280;61294;65.988;29.172;2022-12-07T02:38:59;97223.88;;;-4.15;100.00
73103;BME280;61294;65.988;29.172;2022-12-07T02:41:34;97211.75;;;-4.19;100.00
73103;BME280;61294;65.988;29.172;2022-12-07T02:44:02;97219.72;;;-4.11;100.00
73103;BME280;61294;65.988;29.172;2022-12-07T02:46:51;97223.09;;;-4.12;100.00
73103;BME280;61294;65.988;29.172;2022-12-07T02:49:19;97196.16;;;-4.25;100.00
73103;BME280;61294;65.988;29.172;2022-12-07T02:51:47;97223.94;;;-4.13;100.00
73103;BME280;61294;65.988;29.172;2022-12-07T02:54:18;97222.09;;;-4.18;100.00
73103;BME280;61294;65.988;29.172;2022-12-07T02:59:29;97202.31;;;-4.20;100.00
73103;BME280;61294;65.988;29.172;2022-12-07T03:07:39;97206.44;;;-4.25;100.00
73103;BME280;61294;65.988;29.172;2022-12-07T03:10:35;97218.63;;;-4.20;100.00
73103;BME280;61294;65.988;29.172;2022-12-07T03:18:39;97220.19;;;-4.23;100.00
73103;BME280;61294;65.988;29.172;2022-12-07T03:21:11;97193.16;;;-4.39;100.00
73103;BME280;61294;65.988;29.172;2022-12-07T03:23:41;97233.31;;;-4.16;100.00
73103;BME280;61294;65.988;29.172;2022-12-07T03:26:10;97241.03;;;-4.16;100.00
73103;BME280;61294;65.988;29.172;2022-12-07T03:28:41;97243.56;;;-4.17;100.00
73103;BME280;61294;65.988;29.172;2022-12-07T03:31:21;97243.47;;;-4.20;100.00
73103;BME280;61294;65.988;29.172;2022-12-07T03:34:21;97239.22;;;-4.18;100.00
73103;BME280;61294;65.988;29.172;2022-12-07T03:39:33;97249.50;;;-4.18;100.00
73103;BME280;61294;65.988;29.172;2022-12-07T03:42:03;97252.13;;;-4.17;100.00
73103;BME280;61294;65.988;29.172;2022-12-07T03:44:31;97244.91;;;-4.28;100.00
73103;BME280;61294;65.988;29.172;2022-12-07T03:50:47;97245.06;;;-4.24;100.00
73103;BME280;61294;65.988;29.172;2022-12-07T03:53:19;97258.94;;;-4.19;100.00
73103;BME280;61294;65.988;29.172;2022-12-07T03:55:48;97250.25;;;-4.22;100.00
73103;BME280;61294;65.988;29.172;2022-12-07T03:58:17;97258.00;;;-4.21;100.00
73103;BME280;61294;65.988;29.172;2022-12-07T04:00:45;97251.13;;;-4.22;100.00
73103;BME280;61294;65.988;29.172;2022-12-07T04:03:11;97266.47;;;-4.23;100.00
73103;BME280;61294;65.988;29.172;2022-12-07T04:05:38;97236.00;;;-4.40;100.00
73103;BME280;61294;65.988;29.172;2022-12-07T04:08:04;97234.19;;;-4.42;100.00
73103;BME280;61294;65.988;29.172;2022-12-07T04:10:30;97270.50;;;-4.33;100.00
73103;BME280;61294;65.988;29.172;2022-12-07T04:12:56;97266.34;;;-4.28;100.00
73103;BME280;61294;65.988;29.172;2022-12-07T04:15:22;97246.41;;;-4.35;100.00
73103;BME280;61294;65.988;29.172;2022-12-07T04:17:48;97221.06;;;-4.52;100.00
73103;BME280;61294;65.988;29.172;2022-12-07T04:20:13;97262.75;;;-4.35;100.00
73103;BME280;61294;65.988;29.172;2022-12-07T04:22:39;97272.25;;;-4.30;100.00
73103;BME280;61294;65.988;29.172;2022-12-07T04:25:05;97253.22;;;-4.37;100.00
73103;BME280;61294;65.988;29.172;2022-12-07T04:27:31;97249.66;;;-4.41;100.00
73103;BME280;61294;65.988;29.172;2022-12-07T04:29:57;97248.75;;;-4.43;100.00
73103;BME280;61294;65.988;29.172;2022-12-07T04:32:24;97252.09;;;-4.45;100.00
73103;BME280;61294;65.988;29.172;2022-12-07T04:34:49;97260.75;;;-4.42;100.00
73103;BME280;61294;65.988;29.172;2022-12-07T04:37:15;97261.66;;;-4.41;100.00
73103;BME280;61294;65.988;29.172;2022-12-07T04:39:42;97247.00;;;-4.44;100.00
73103;BME280;61294;65.988;29.172;2022-12-07T04:42:10;97251.34;;;-4.43;100.00
73103;BME280;61294;65.988;29.172;2022-12-07T04:44:36;97256.44;;;-4.44;100.00
73103;BME280;61294;65.988;29.172;2022-12-07T04:47:02;97259.00;;;-4.44;100.00
73103;BME280;61294;65.988;29.172;2022-12-07T04:49:28;97254.50;;;-4.52;100.00
73103;BME280;61294;65.988;29.172;2022-12-07T04:51:54;97251.91;;;-4.52;100.00
73103;BME280;61294;65.988;29.172;2022-12-07T04:54:20;97241.50;;;-4.55;100.00
73103;BME280;61294;65.988;29.172;2022-12-07T04:56:46;97268.34;;;-4.46;100.00
73103;BME280;61294;65.988;29.172;2022-12-07T04:59:12;97252.66;;;-4.56;100.00
73103;BME280;61294;65.988;29.172;2022-12-07T05:01:39;97257.06;;;-4.52;100.00
73103;BME280;61294;65.988;29.172;2022-12-07T05:04:05;97256.03;;;-4.57;100.00
73103;BME280;61294;65.988;29.172;2022-12-07T05:06:31;97266.97;;;-4.62;100.00
73103;BME280;61294;65.988;29.172;2022-12-07T05:08:57;97287.22;;;-4.46;100.00
73103;BME280;61294;65.988;29.172;2022-12-07T05:11:22;97288.75;;;-4.51;100.00
73103;BME280;61294;65.988;29.172;2022-12-07T05:14:04;97293.09;;;-4.50;100.00
73103;BME280;61294;65.988;29.172;2022-12-07T05:16:30;97294.91;;;-4.47;100.00
73103;BME280;61294;65.988;29.172;2022-12-07T05:18:56;97290.56;;;-4.48;100.00
73103;BME280;61294;65.988;29.172;2022-12-07T05:21:22;97296.44;;;-4.53;100.00
73103;BME280;61294;65.988;29.172;2022-12-07T05:23:48;97263.34;;;-4.69;100.00
73103;BME280;61294;65.988;29.172;2022-12-07T05:26:14;97278.13;;;-4.62;100.00
73103;BME280;61294;65.988;29.172;2022-12-07T05:28:40;97307.53;;;-4.54;100.00
73103;BME280;61294;65.988;29.172;2022-12-07T05:31:06;97304.00;;;-4.57;100.00
73103;BME280;61294;65.988;29.172;2022-12-07T05:33:32;97284.19;;;-4.60;100.00
73103;BME280;61294;65.988;29.172;2022-12-07T05:35:58;97272.78;;;-4.68;100.00
73103;BME280;61294;65.988;29.172;2022-12-07T05:38:24;97301.44;;;-4.57;100.00
73103;BME280;61294;65.988;29.172;2022-12-07T05:40:50;97307.38;;;-4.58;100.00
73103;BME280;61294;65.988;29.172;2022-12-07T05:43:17;97306.53;;;-4.59;100.00
73103;BME280;61294;65.988;29.172;2022-12-07T05:45:43;97314.28;;;-4.57;100.00
73103;BME280;61294;65.988;29.172;2022-12-07T05:48:09;97309.00;;;-4.60;100.00
73103;BME280;61294;65.988;29.172;2022-12-07T05:50:34;97318.38;;;-4.62;100.00
73103;BME280;61294;65.988;29.172;2022-12-07T05:53:00;97289.75;;;-4.73;100.00
73103;BME280;61294;65.988;29.172;2022-12-07T05:55:26;97313.28;;;-4.61;100.00
73103;BME280;61294;65.988;29.172;2022-12-07T05:57:52;97324.38;;;-4.62;100.00
73103;BME280;61294;65.988;29.172;2022-12-07T06:00:36;97318.13;;;-4.70;100.00
73103;BME280;61294;65.988;29.172;2022-12-07T06:03:01;97312.06;;;-4.72;100.00
73103;BME280;61294;65.988;29.172;2022-12-07T06:05:27;97328.50;;;-4.67;100.00
73103;BME280;61294;65.988;29.172;2022-12-07T06:07:53;97326.84;;;-4.65;100.00
73103;BME280;61294;65.988;29.172;2022-12-07T06:10:19;97343.03;;;-4.68;100.00
73103;BME280;61294;65.988;29.172;2022-12-07T06:12:44;97340.41;;;-4.69;100.00
73103;BME280;61294;65.988;29.172;2022-12-07T06:15:11;97344.75;;;-4.68;100.00
73103;BME280;61294;65.988;29.172;2022-12-07T06:17:38;97342.88;;;-4.72;100.00
73103;BME280;61294;65.988;29.172;2022-12-07T06:20:05;97336.97;;;-4.70;100.00
73103;BME280;61294;65.988;29.172;2022-12-07T06:22:31;97345.56;;;-4.69;100.00
73103;BME280;61294;65.988;29.172;2022-12-07T06:24:57;97354.09;;;-4.70;100.00
73103;BME280;61294;65.988;29.172;2022-12-07T06:27:23;97352.97;;;-4.78;100.00
73103;BME280;61294;65.988;29.172;2022-12-07T06:29:48;97321.91;;;-4.85;100.00
73103;BME280;61294;65.988;29.172;2022-12-07T06:32:14;97359.06;;;-4.75;100.00
73103;BME280;61294;65.988;29.172;2022-12-07T06:34:40;97372.81;;;-4.74;100.00
73103;BME280;61294;65.988;29.172;2022-12-07T06:37:05;97357.88;;;-4.85;100.00
73103;BME280;61294;65.988;29.172;2022-12-07T06:39:31;97367.66;;;-4.74;100.00
73103;BME280;61294;65.988;29.172;2022-12-07T06:41:57;97371.84;;;-4.76;100.00
73103;BME280;61294;65.988;29.172;2022-12-07T06:44:23;97370.00;;;-4.80;100.00
73103;BME280;61294;65.988;29.172;2022-12-07T06:46:50;97371.59;;;-4.84;100.00
73103;BME280;61294;65.988;29.172;2022-12-07T06:49:16;97396.78;;;-4.74;100.00
73103;BME280;61294;65.988;29.172;2022-12-07T06:51:42;97368.69;;;-4.93;100.00
73103;BME280;61294;65.988;29.172;2022-12-07T06:54:10;97396.75;;;-4.75;100.00
73103;BME280;61294;65.988;29.172;2022-12-07T06:56:36;97397.44;;;-4.79;100.00
73103;BME280;61294;65.988;29.172;2022-12-07T06:59:02;97400.13;;;-4.76;100.00
73103;BME280;61294;65.988;29.172;2022-12-07T07:01:28;97367.72;;;-4.97;100.00
73103;BME280;61294;65.988;29.172;2022-12-07T07:03:54;97416.53;;;-4.73;100.00
73103;BME280;61294;65.988;29.172;2022-12-07T07:06:20;97406.91;;;-4.78;100.00
73103;BME280;61294;65.988;29.172;2022-12-07T07:08:46;97411.81;;;-4.85;100.00
73103;BME280;61294;65.988;29.172;2022-12-07T07:11:12;97411.09;;;-4.80;100.00
73103;BME280;61294;65.988;29.172;2022-12-07T07:13:38;97420.56;;;-4.79;100.00
73103;BME280;61294;65.988;29.172;2022-12-07T07:16:04;97422.94;;;-4.86;100.00
73103;BME280;61294;65.988;29.172;2022-12-07T07:18:30;97422.94;;;-4.86;100.00
73103;BME280;61294;65.988;29.172;2022-12-07T07:20:56;97393.13;;;-5.05;100.00
73103;BME280;61294;65.988;29.172;2022-12-07T07:23:22;97427.91;;;-4.90;100.00
73103;BME280;61294;65.988;29.172;2022-12-07T07:25:48;97436.53;;;-4.88;100.00
73103;BME280;61294;65.988;29.172;2022-12-07T07:28:15;97429.63;;;-4.89;100.00
73103;BME280;61294;65.988;29.172;2022-12-07T07:30:41;97446.84;;;-4.87;100.00
73103;BME280;61294;65.988;29.172;2022-12-07T07:33:06;97397.19;;;-5.11;100.00
73103;BME280;61294;65.988;29.172;2022-12-07T07:35:33;97453.66;;;-4.89;100.00
73103;BME280;61294;65.988;29.172;2022-12-07T07:38:00;97457.03;;;-4.90;100.00
73103;BME280;61294;65.988;29.172;2022-12-07T07:40:26;97444.94;;;-4.92;100.00
73103;BME280;61294;65.988;29.172;2022-12-07T07:42:53;97457.72;;;-4.94;100.00
73103;BME280;61294;65.988;29.172;2022-12-07T07:45:21;97451.03;;;-4.90;100.00
73103;BME280;61294;65.988;29.172;2022-12-07T07:47:47;97456.03;;;-4.93;100.00
73103;BME280;61294;65.988;29.172;2022-12-07T07:50:13;97423.63;;;-5.14;100.00
73103;BME280;61294;65.988;29.172;2022-12-07T07:52:39;97463.72;;;-4.93;100.00
73103;BME280;61294;65.988;29.172;2022-12-07T07:55:05;97470.69;;;-4.91;100.00
73103;BME280;61294;65.988;29.172;2022-12-07T07:57:32;97466.59;;;-4.86;100.00
73103;BME280;61294;65.988;29.172;2022-12-07T07:59:58;97464.78;;;-4.88;100.00
73103;BME280;61294;65.988;29.172;2022-12-07T08:02:24;97452.50;;;-4.97;100.00
73103;BME280;61294;65.988;29.172;2022-12-07T08:04:50;97469.16;;;-4.86;100.00
73103;BME280;61294;65.988;29.172;2022-12-07T08:07:15;97473.56;;;-4.83;100.00
73103;BME280;61294;65.988;29.172;2022-12-07T08:09:41;97469.13;;;-4.87;100.00
73103;BME280;61294;65.988;29.172;2022-12-07T08:12:07;97467.47;;;-4.85;100.00
73103;BME280;61294;65.988;29.172;2022-12-07T08:14:33;97458.22;;;-5.04;100.00
73103;BME280;61294;65.988;29.172;2022-12-07T08:16:59;97480.03;;;-4.93;100.00
73103;BME280;61294;65.988;29.172;2022-12-07T08:19:25;97484.22;;;-4.95;100.00
73103;BME280;61294;65.988;29.172;2022-12-07T08:21:51;97469.28;;;-5.05;100.00
73103;BME280;61294;65.988;29.172;2022-12-07T08:24:17;97479.78;;;-4.99;100.00
73103;BME280;61294;65.988;29.172;2022-12-07T08:26:43;97464.91;;;-5.08;100.00
73103;BME280;61294;65.988;29.172;2022-12-07T08:29:09;97475.94;;;-5.10;100.00
73103;BME280;61294;65.988;29.172;2022-12-07T08:31:35;97473.09;;;-5.18;100.00
73103;BME280;61294;65.988;29.172;2022-12-07T08:34:00;97481.72;;;-5.16;100.00
73103;BME280;61294;65.988;29.172;2022-12-07T08:36:26;97476.47;;;-5.19;100.00
73103;BME280;61294;65.988;29.172;2022-12-07T08:38:52;97482.50;;;-5.18;100.00
73103;BME280;61294;65.988;29.172;2022-12-07T08:41:18;97478.22;;;-5.18;100.00
73103;BME280;61294;65.988;29.172;2022-12-07T08:43:44;97483.25;;;-5.21;100.00
73103;BME280;61294;65.988;29.172;2022-12-07T08:46:18;97492.34;;;-5.29;100.00
73103;BME280;61294;65.988;29.172;2022-12-07T08:48:58;97482.13;;;-5.28;100.00
73103;BME280;61294;65.988;29.172;2022-12-07T08:51:27;97498.78;;;-5.18;100.00
73103;BME280;61294;65.988;29.172;2022-12-07T08:53:54;97502.91;;;-5.22;100.00
73103;BME280;61294;65.988;29.172;2022-12-07T08:56:21;97505.56;;;-5.20;100.00
73103;BME280;61294;65.988;29.172;2022-12-07T08:58:48;97486.34;;;-5.30;100.00
73103;BME280;61294;65.988;29.172;2022-12-07T09:01:14;97460.09;;;-5.45;100.00
73103;BME280;61294;65.988;29.172;2022-12-07T09:03:39;97507.13;;;-5.24;100.00
73103;BME280;61294;65.988;29.172;2022-12-07T09:06:06;97506.13;;;-5.27;100.00
73103;BME280;61294;65.988;29.172;2022-12-07T09:08:40;97491.28;;;-5.34;100.00
73103;BME280;61294;65.988;29.172;2022-12-07T09:11:07;97512.81;;;-5.31;100.00
73103;BME280;61294;65.988;29.172;2022-12-07T09:13:33;97521.44;;;-5.29;100.00
73103;BME280;61294;65.988;29.172;2022-12-07T09:15:59;97518.88;;;-5.29;100.00
73103;BME280;61294;65.988;29.172;2022-12-07T09:18:25;97507.69;;;-5.31;100.00
73103;BME280;61294;65.988;29.172;2022-12-07T09:20:51;97521.59;;;-5.26;100.00
73103;BME280;61294;65.988;29.172;2022-12-07T09:23:17;97523.16;;;-5.29;100.00
73103;BME280;61294;65.988;29.172;2022-12-07T09:25:42;97528.34;;;-5.28;100.00
73103;BME280;61294;65.988;29.172;2022-12-07T09:28:08;97534.22;;;-5.30;100.00
73103;BME280;61294;65.988;29.172;2022-12-07T09:30:35;97528.22;;;-5.31;100.00
73103;BME280;61294;65.988;29.172;2022-12-07T09:33:00;97531.09;;;-5.23;100.00
73103;BME280;61294;65.988;29.172;2022-12-07T09:35:26;97522.50;;;-5.24;100.00
73103;BME280;61294;65.988;29.172;2022-12-07T09:37:52;97531.72;;;-5.29;100.00
73103;BME280;61294;65.988;29.172;2022-12-07T09:40:20;97537.63;;;-5.31;100.00
73103;BME280;61294;65.988;29.172;2022-12-07T09:42:49;97528.22;;;-5.31;100.00
73103;BME280;61294;65.988;29.172;2022-12-07T09:45:28;97536.78;;;-5.30;100.00
73103;BME280;61294;65.988;29.172;2022-12-07T09:47:57;97502.75;;;-5.47;100.00
73103;BME280;61294;65.988;29.172;2022-12-07T09:50:26;97521.16;;;-5.37;100.00
73103;BME280;61294;65.988;29.172;2022-12-07T09:52:54;97533.38;;;-5.31;100.00
73103;BME280;61294;65.988;29.172;2022-12-07T09:55:28;97542.06;;;-5.27;100.00
73103;BME280;61294;65.988;29.172;2022-12-07T09:57:55;97535.88;;;-5.32;100.00
73103;BME280;61294;65.988;29.172;2022-12-07T10:00:22;97512.59;;;-5.37;100.00
73103;BME280;61294;65.988;29.172;2022-12-07T10:02:59;97543.75;;;-5.28;100.00
73103;BME280;61294;65.988;29.172;2022-12-07T10:07:54;97539.81;;;-5.41;100.00
73103;BME280;61294;65.988;29.172;2022-12-07T10:10:25;97545.44;;;-5.28;100.00
73103;BME280;61294;65.988;29.172;2022-12-07T10:13:00;97556.53;;;-5.29;100.00
73103;BME280;61294;65.988;29.172;2022-12-07T10:15:52;97554.91;;;-5.27;100.00
73103;BME280;61294;65.988;29.172;2022-12-07T10:20:47;97567.47;;;-5.33;100.00
73103;BME280;61294;65.988;29.172;2022-12-07T10:23:17;97571.88;;;-5.31;100.00
73103;BME280;61294;65.988;29.172;2022-12-07T10:25:44;97552.47;;;-5.45;100.00
73103;BME280;61294;65.988;29.172;2022-12-07T10:28:16;97555.91;;;-5.45;100.00
73103;BME280;61294;65.988;29.172;2022-12-07T10:33:40;97579.69;;;-5.28;100.00
73103;BME280;61294;65.988;29.172;2022-12-07T10:36:29;97568.84;;;-5.42;100.00
73103;BME280;61294;65.988;29.172;2022-12-07T10:41:28;97561.03;;;-5.45;100.00
73103;BME280;61294;65.988;29.172;2022-12-07T10:43:56;97575.88;;;-5.38;100.00
73103;BME280;61294;65.988;29.172;2022-12-07T10:50:10;97574.19;;;-5.37;100.00
73103;BME280;61294;65.988;29.172;2022-12-07T10:52:57;97575.44;;;-5.48;100.00
73103;BME280;61294;65.988;29.172;2022-12-07T11:01:18;97562.50;;;-5.51;100.00
73103;BME280;61294;65.988;29.172;2022-12-07T11:09:34;97576.75;;;-5.58;100.00
73103;BME280;61294;65.988;29.172;2022-12-07T11:36:48;97607.38;;;-5.63;100.00
73103;BME280;61294;65.988;29.172;2022-12-07T11:41:48;97618.09;;;-5.72;100.00
73103;BME280;61294;65.988;29.172;2022-12-07T11:44:26;97603.53;;;-5.73;100.00
73103;BME280;61294;65.988;29.172;2022-12-07T11:47:09;97604.66;;;-5.66;100.00
73103;BME280;61294;65.988;29.172;2022-12-07T11:53:18;97575.28;;;-5.94;100.00
73103;BME280;61294;65.988;29.172;2022-12-07T11:58:57;97615.63;;;-5.90;100.00
73103;BME280;61294;65.988;29.172;2022-12-07T12:03:58;97621.50;;;-5.92;100.00
73103;BME280;61294;65.988;29.172;2022-12-07T12:06:26;97607.91;;;-6.11;100.00
73103;BME280;61294;65.988;29.172;2022-12-07T12:09:18;97631.66;;;-6.15;99.56
73103;BME280;61294;65.988;29.172;2022-12-07T12:14:37;97628.09;;;-6.18;100.00
73103;BME280;61294;65.988;29.172;2022-12-07T12:20:01;97640.94;;;-6.18;100.00
73103;BME280;61294;65.988;29.172;2022-12-07T12:22:41;97644.63;;;-6.12;100.00
73103;BME280;61294;65.988;29.172;2022-12-07T12:25:23;97657.78;;;-6.04;100.00
73103;BME280;61294;65.988;29.172;2022-12-07T12:27:52;97665.19;;;-6.10;100.00
73103;BME280;61294;65.988;29.172;2022-12-07T12:54:37;97677.88;;;-6.13;100.00
73103;BME280;61294;65.988;29.172;2022-12-07T12:59:57;97686.91;;;-6.21;100.00
73103;BME280;61294;65.988;29.172;2022-12-07T13:02:32;97682.66;;;-6.21;100.00
73103;BME280;61294;65.988;29.172;2022-12-07T13:20:59;97699.06;;;-6.17;100.00
73103;BME280;61294;65.988;29.172;2022-12-07T13:28:52;97692.56;;;-6.29;100.00
73103;BME280;61294;65.988;29.172;2022-12-07T13:31:56;97663.66;;;-6.44;100.00
73103;BME280;61294;65.988;29.172;2022-12-07T13:34:41;97698.25;;;-6.16;100.00
73103;BME280;61294;65.988;29.172;2022-12-07T13:37:27;97699.06;;;-6.17;100.00
73103;BME280;61294;65.988;29.172;2022-12-07T13:39:56;97708.31;;;-6.21;100.00
73103;BME280;61294;65.988;29.172;2022-12-07T13:42:31;97711.66;;;-6.22;100.00
73103;BME280;61294;65.988;29.172;2022-12-07T13:44:59;97703.78;;;-6.27;100.00
73103;BME280;61294;65.988;29.172;2022-12-07T13:47:33;97691.41;;;-6.35;100.00
73103;BME280;61294;65.988;29.172;2022-12-07T13:50:20;97677.97;;;-6.49;100.00
73103;BME280;61294;65.988;29.172;2022-12-07T13:52:47;97713.44;;;-6.39;100.00
73103;BME280;61294;65.988;29.172;2022-12-07T13:55:16;97704.16;;;-6.37;100.00
73103;BME280;61294;65.988;29.172;2022-12-07T13:57:47;97726.13;;;-6.42;100.00
73103;BME280;61294;65.988;29.172;2022-12-07T14:00:19;97711.41;;;-6.64;100.00
73103;BME280;61294;65.988;29.172;2022-12-07T14:02:56;97713.38;;;-6.59;100.00
73103;BME280;61294;65.988;29.172;2022-12-07T14:05:25;97736.03;;;-6.50;100.00
73103;BME280;61294;65.988;29.172;2022-12-07T14:07:57;97737.47;;;-6.55;100.00
73103;BME280;61294;65.988;29.172;2022-12-07T14:10:55;97721.97;;;-6.58;100.00
73103;BME280;61294;65.988;29.172;2022-12-07T14:15:54;97728.41;;;-6.66;100.00
73103;BME280;61294;65.988;29.172;2022-12-07T14:18:37;97723.78;;;-6.73;100.00
73103;BME280;61294;65.988;29.172;2022-12-07T14:21:27;97705.19;;;-6.87;100.00
73103;BME280;61294;65.988;29.172;2022-12-07T14:24:14;97732.00;;;-6.81;100.00
73103;BME280;61294;65.988;29.172;2022-12-07T14:26:40;97728.38;;;-6.84;100.00
73103;BME280;61294;65.988;29.172;2022-12-07T14:31:52;97716.53;;;-7.00;100.00
73103;BME280;61294;65.988;29.172;2022-12-07T14:34:23;97732.34;;;-6.91;100.00
73103;BME280;61294;65.988;29.172;2022-12-07T14:36:49;97732.00;;;-6.81;100.00
73103;BME280;61294;65.988;29.172;2022-12-07T14:39:15;97734.34;;;-6.85;100.00
73103;BME280;61294;65.988;29.172;2022-12-07T14:41:41;97750.50;;;-6.68;100.00
73103;BME280;61294;65.988;29.172;2022-12-07T14:44:20;97748.63;;;-6.72;100.00
73103;BME280;61294;65.988;29.172;2022-12-07T14:46:48;97742.59;;;-6.73;100.00
73103;BME280;61294;65.988;29.172;2022-12-07T14:49:14;97747.56;;;-6.76;100.00
73103;BME280;61294;65.988;29.172;2022-12-07T14:51:42;97744.34;;;-6.72;100.00
73103;BME280;61294;65.988;29.172;2022-12-07T14:54:31;97737.94;;;-6.64;100.00
73103;BME280;61294;65.988;29.172;2022-12-07T14:56:59;97710.91;;;-6.75;100.00
73103;BME280;61294;65.988;29.172;2022-12-07T14:59:25;97749.75;;;-6.66;100.00
73103;BME280;61294;65.988;29.172;2022-12-07T15:01:52;97730.25;;;-6.64;100.00
73103;BME280;61294;65.988;29.172;2022-12-07T15:04:20;97742.75;;;-6.52;100.00
73103;BME280;61294;65.988;29.172;2022-12-07T15:07:02;97745.25;;;-6.53;100.00
73103;BME280;61294;65.988;29.172;2022-12-07T15:09:28;97765.88;;;-6.50;100.00
73103;BME280;61294;65.988;29.172;2022-12-07T15:11:54;97731.31;;;-6.59;100.00
73103;BME280;61294;65.988;29.172;2022-12-07T15:14:21;97752.72;;;-6.58;100.00
73103;BME280;61294;65.988;29.172;2022-12-07T15:16:47;97759.50;;;-6.59;100.00
73103;BME280;61294;65.988;29.172;2022-12-07T15:19:18;97735.13;;;-6.68;100.00
73103;BME280;61294;65.988;29.172;2022-12-07T15:21:48;97766.38;;;-6.57;100.00